Time;durP1;ratioP1;P1;durP2;ratioP2;P2;SDS_P1;SDS_P2;PMS_P1;PMS_P2;Temp;Humidity;BMP_temperature;BMP_pressure;BME280_temperature;BME280_humidity;BME280_pressure;Samples;Min_cycle;Max_cycle;Signal;HPM_P1;HPM_P2
2021/05/19 00:00:44;;;;;;;23.90;9.95;;;;;;;-142.75;67.65;77611.75;4949780;28;20484;-76
2021/05/19 00:03:09;;;;;;;26.73;10.85;;;;;;;-142.75;67.86;77615.69;4975119;28;20034;-75
2021/05/19 00:05:34;;;;;;;21.05;10.50;;;;;;;-142.75;67.94;77607.81;4979158;28;20027;-74
2021/05/19 00:07:59;;;;;;;21.52;10.13;;;;;;;-142.75;68.10;77594.03;4967007;28;20376;-75
2021/05/19 00:10:25;;;;;;;23.00;10.77;;;;;;;-142.75;67.81;77588.13;4949723;28;20018;-74
2021/05/19 00:12:50;;;;;;;22.20;9.10;;;;;;;-142.75;67.57;77590.09;4968464;28;20030;-73
2021/05/19 00:15:15;;;;;;;20.10;8.60;;;;;;;-142.75;67.56;77582.22;4986178;28;20071;-74
2021/05/19 00:17:46;;;;;;;19.30;8.73;;;;;;;-142.75;67.33;77582.22;4968358;28;20022;-75
2021/05/19 00:20:13;;;;;;;16.63;7.90;;;;;;;-142.75;67.40;77588.13;4972257;28;20042;-73
2021/05/19 00:22:39;;;;;;;21.60;7.82;;;;;;;-142.75;67.53;77582.22;4968742;28;20037;-75
2021/05/19 00:25:05;;;;;;;21.48;8.40;;;;;;;-142.75;67.55;77582.22;4977576;28;20407;-75
2021/05/19 00:27:31;;;;;;;23.15;8.05;;;;;;;-142.75;67.53;77582.22;4969716;28;20031;-75
2021/05/19 00:29:57;;;;;;;26.48;8.23;;;;;;;-142.75;67.25;77590.09;4985080;28;20033;-73
2021/05/19 00:32:22;;;;;;;20.70;8.05;;;;;;;-142.75;67.41;77592.06;4989531;28;20030;-75
2021/05/19 00:34:50;;;;;;;13.13;6.65;;;;;;;-142.75;67.20;77590.09;4971652;28;20406;-74
2021/05/19 00:37:16;;;;;;;16.58;7.70;;;;;;;-142.75;66.96;77586.16;4971780;28;20475;-75
2021/05/19 00:39:46;;;;;;;22.63;7.75;;;;;;;-142.75;67.10;77576.31;4989031;28;20151;-73
2021/05/19 00:42:12;;;;;;;25.23;8.73;;;;;;;-142.75;67.52;77578.28;4989220;28;20030;-75
2021/05/19 00:44:38;;;;;;;27.63;9.50;;;;;;;-142.75;67.56;77566.47;4962221;28;20037;-75
2021/05/19 00:47:03;;;;;;;24.73;9.25;;;;;;;-142.75;67.39;77562.53;4979938;28;20030;-73
2021/05/19 00:49:28;;;;;;;22.05;9.02;;;;;;;-142.75;67.29;77564.50;4952501;28;20114;-74
2021/05/19 00:51:54;;;;;;;18.88;8.73;;;;;;;-142.75;67.29;77570.41;4952409;28;20389;-75
2021/05/19 00:54:19;;;;;;;21.03;9.03;;;;;;;-142.75;67.40;77586.16;4952341;28;20430;-75
2021/05/19 00:56:44;;;;;;;23.90;9.23;;;;;;;-142.75;67.63;77582.22;4988322;28;20308;-74
2021/05/19 00:59:11;;;;;;;21.67;9.05;;;;;;;-142.75;67.66;77590.09;4956418;28;20262;-73
2021/05/19 01:01:37;;;;;;;23.77;9.63;;;;;;;-142.75;67.71;77584.19;4957782;28;20483;-75
2021/05/19 01:04:04;;;;;;;18.37;8.90;;;;;;;-142.75;67.69;77597.97;4978595;28;20026;-75
2021/05/19 01:06:55;;;;;;;23.03;8.57;;;;;;;-142.75;67.63;77596.00;4967054;28;20022;-74
2021/05/19 01:09:35;;;;;;;20.30;8.83;;;;;;;-142.75;67.71;77603.88;4979679;28;20130;-74
2021/05/19 01:12:02;;;;;;;22.53;8.47;;;;;;;-142.75;67.74;77601.91;4969551;28;20506;-72
2021/05/19 01:14:27;;;;;;;19.40;8.13;;;;;;;-142.75;67.81;77611.75;4969430;28;20023;-76
2021/05/19 01:16:54;;;;;;;23.05;8.77;;;;;;;-142.75;67.83;77611.75;4952717;28;20489;-75
2021/05/19 01:19:21;;;;;;;;;;;;;;;-142.75;67.81;77619.63;4956477;28;20034;-74
2021/05/19 01:21:49;;;;;;;18.08;7.82;;;;;;;-142.75;67.87;77633.41;4988674;28;20394;-74
2021/05/19 01:24:15;;;;;;;29.23;8.70;;;;;;;-142.75;67.88;77633.41;4988472;28;20027;-74
2021/05/19 01:26:41;;;;;;;24.15;8.02;;;;;;;-142.75;68.00;77651.13;4974487;28;20057;-73
2021/05/19 01:29:06;;;;;;;23.33;8.38;;;;;;;-142.75;68.03;77645.22;4965304;28;20029;-73
2021/05/19 01:31:32;;;;;;;25.35;9.23;;;;;;;-142.75;68.13;77653.09;4987634;28;20034;-75
2021/05/19 01:33:58;;;;;;;20.50;8.33;;;;;;;-142.75;68.25;77653.09;4980271;28;20042;-74
2021/05/19 01:36:23;;;;;;;20.95;9.07;;;;;;;-142.75;68.55;77657.03;4968206;28;20066;-75
2021/05/19 01:38:48;;;;;;;20.42;8.27;;;;;;;-142.75;68.37;77660.97;4951625;28;20050;-75
2021/05/19 01:41:14;;;;;;;31.38;10.55;;;;;;;-142.75;68.37;77657.03;4970370;28;20472;-74
2021/05/19 01:43:40;;;;;;;29.55;10.35;;;;;;;-142.75;68.36;77649.16;4962533;28;20105;-73
2021/05/19 01:46:06;;;;;;;22.48;10.18;;;;;;;-142.75;68.42;77662.94;4977878;28;20030;-75
2021/05/19 01:48:33;;;;;;;31.30;10.23;;;;;;;-142.75;68.40;77672.78;4959182;28;20030;-74
2021/05/19 01:50:59;;;;;;;29.83;11.90;;;;;;;-142.75;68.71;77686.56;4987011;28;20054;-73
2021/05/19 01:53:26;;;;;;;30.42;12.43;;;;;;;-142.75;68.73;77690.50;4981332;28;20022;-75
2021/05/19 01:55:52;;;;;;;27.37;12.33;;;;;;;-142.75;68.85;77692.47;4981279;28;20054;-74
2021/05/19 01:58:18;;;;;;;25.98;12.55;;;;;;;-142.75;69.04;77690.50;4971574;28;20496;-74
2021/05/19 02:00:43;;;;;;;28.15;14.55;;;;;;;-142.75;68.86;77684.59;4981359;28;20030;-73
2021/05/19 02:03:09;;;;;;;27.23;14.27;;;;;;;-142.75;68.86;77684.59;4972500;28;20503;-75
2021/05/19 02:05:36;;;;;;;35.53;16.13;;;;;;;-142.75;68.95;77692.47;4973349;28;20027;-74
2021/05/19 02:08:08;;;;;;;26.10;15.07;;;;;;;-142.75;68.98;77700.34;4958638;28;20515;-75
2021/05/19 02:10:35;;;;;;;25.77;14.73;;;;;;;-142.75;69.25;77696.41;4957918;28;20030;-74
2021/05/19 02:13:06;;;;;;;32.70;17.77;;;;;;;-142.75;69.12;77704.28;4976940;28;20027;-72
2021/05/19 02:15:31;;;;;;;35.77;17.63;;;;;;;-142.75;69.31;77702.31;4977245;28;20031;-74
2021/05/19 02:17:59;;;;;;;26.20;16.10;;;;;;;-142.75;69.10;77704.28;4961399;28;20037;-72
2021/05/19 02:20:24;;;;;;;29.83;17.50;;;;;;;-142.75;68.85;77706.25;4958669;28;20023;-74
2021/05/19 02:22:51;;;;;;;33.72;18.00;;;;;;;-142.75;68.95;77710.19;4982583;28;20030;-75
2021/05/19 02:25:18;;;;;;;26.23;14.83;;;;;;;-142.75;69.17;77712.16;4963874;28;20033;-73
2021/05/19 02:27:45;;;;;;;29.17;16.70;;;;;;;-142.75;69.11;77712.16;4966136;28;20088;-74
2021/05/19 02:30:11;;;;;;;23.53;14.23;;;;;;;-142.75;68.75;77729.88;4968534;28;20565;-75
2021/05/19 02:32:37;;;;;;;31.17;17.67;;;;;;;-142.75;68.78;77735.81;4983764;28;20030;-75
2021/05/19 02:35:04;;;;;;;;;;;;;;;-142.75;69.03;77739.75;4956543;28;20038;-74
2021/05/19 02:37:29;;;;;;;29.15;16.58;;;;;;;-142.75;68.99;77741.72;4957292;28;19918;-74
2021/05/19 02:39:55;;;;;;;28.85;16.35;;;;;;;-142.75;69.26;77737.78;4956968;28;20407;-75
2021/05/19 02:42:20;;;;;;;32.70;17.00;;;;;;;-142.75;69.18;77739.75;4987373;28;20053;-74
2021/05/19 02:44:45;;;;;;;27.60;16.63;;;;;;;-142.75;69.18;77751.56;4987388;28;20093;-74
2021/05/19 02:47:11;;;;;;;23.10;15.23;;;;;;;-142.75;69.09;77755.50;4969875;28;20027;-74
2021/05/19 02:49:36;;;;;;;28.15;15.77;;;;;;;-142.75;69.10;77759.44;4987348;28;20144;-74
2021/05/19 02:52:02;;;;;;;29.27;17.10;;;;;;;-142.75;69.11;77755.50;4969928;28;20109;-74
2021/05/19 02:54:27;;;;;;;25.48;16.27;;;;;;;-142.75;69.29;77751.56;4969747;28;20026;-75
2021/05/19 02:56:53;;;;;;;29.23;16.60;;;;;;;-142.75;69.26;77759.44;4987014;28;20038;-75
2021/05/19 02:59:18;;;;;;;30.25;16.42;;;;;;;-142.75;69.41;77763.38;4961690;28;20577;-74
2021/05/19 03:01:44;;;;;;;23.92;15.38;;;;;;;-142.75;69.33;77771.25;4967745;28;20042;-72
2021/05/19 03:04:09;;;;;;;24.00;14.45;;;;;;;-142.75;69.17;77771.25;4950565;28;20058;-73
2021/05/19 03:06:35;;;;;;;23.25;14.75;;;;;;;-142.75;68.96;77777.16;4950343;28;20023;-74
2021/05/19 03:09:01;;;;;;;25.50;14.70;;;;;;;-142.75;69.29;77781.09;4950434;28;20080;-75
2021/05/19 03:11:26;;;;;;;27.02;14.02;;;;;;;-142.75;69.33;77775.19;4983834;28;20449;-74
2021/05/19 03:13:52;;;;;;;27.92;12.85;;;;;;;-142.75;69.43;77781.09;4961271;28;20391;-75
2021/05/19 03:16:17;;;;;;;23.95;13.93;;;;;;;-142.75;69.29;77777.16;4962089;28;20030;-75
2021/05/19 03:18:43;;;;;;;25.67;13.98;;;;;;;-142.75;69.17;77788.97;4968340;28;20058;-75
2021/05/19 03:21:08;;;;;;;26.90;13.88;;;;;;;-142.75;69.25;77787.00;4960775;28;20023;-76
2021/05/19 03:23:34;;;;;;;23.98;13.43;;;;;;;-142.75;69.12;77790.94;4969181;28;20542;-75
2021/05/19 03:26:00;;;;;;;19.67;12.00;;;;;;;-142.75;69.20;77790.94;4960629;28;20031;-72
2021/05/19 03:28:26;;;;;;;25.77;12.60;;;;;;;-142.75;69.37;77787.00;4970362;28;20320;-74
2021/05/19 03:30:51;;;;;;;24.13;12.13;;;;;;;-142.75;69.33;77781.09;4961648;28;20030;-75
2021/05/19 03:33:17;;;;;;;24.80;12.02;;;;;;;-142.75;69.51;77771.25;4969325;28;20479;-75
2021/05/19 03:35:42;;;;;;;24.00;11.35;;;;;;;-142.75;69.33;77775.19;4978265;28;20030;-75
2021/05/19 03:38:08;;;;;;;19.58;11.50;;;;;;;-142.75;69.23;77767.31;4986417;28;20026;-75
2021/05/19 03:40:34;;;;;;;22.92;11.13;;;;;;;-142.75;69.22;77769.28;4985841;28;20050;-73
2021/05/19 03:42:59;;;;;;;26.35;11.88;;;;;;;-142.75;69.63;77751.56;4968430;28;20427;-75
2021/05/19 03:45:25;;;;;;;20.90;11.02;;;;;;;-142.75;69.33;77741.72;4968521;28;20022;-74
2021/05/19 03:47:53;;;;;;;27.00;11.50;;;;;;;-142.75;69.30;77731.88;4984269;28;20034;-75
2021/05/19 03:50:24;;;;;;;22.77;11.30;;;;;;;-142.75;69.24;77720.03;4966716;28;20022;-75
2021/05/19 03:52:50;;;;;;;25.13;11.87;;;;;;;-142.75;69.26;77722.00;4957953;28;20087;-75
2021/05/19 03:55:15;;;;;;;26.13;10.68;;;;;;;-142.75;69.07;77700.34;4968261;28;20022;-76
2021/05/19 03:57:41;;;;;;;19.75;10.43;;;;;;;-142.75;68.92;77698.38;4968409;28;20026;-76
2021/05/19 04:00:13;;;;;;;25.40;10.80;;;;;;;-142.75;68.68;77692.47;4974324;28;21091;-75
2021/05/19 04:02:40;;;;;;;22.57;10.67;;;;;;;-142.75;68.79;77684.59;4956959;28;20072;-75
2021/05/19 04:05:06;;;;;;;23.23;10.83;;;;;;;-142.75;68.78;77676.72;4953349;28;20480;-73
2021/05/19 04:07:32;;;;;;;26.23;10.70;;;;;;;-142.75;68.98;77660.97;4960092;28;20473;-75
2021/05/19 04:09:57;;;;;;;29.73;10.88;;;;;;;-142.75;68.55;77653.09;4955575;28;20075;-75
2021/05/19 04:12:22;;;;;;;26.23;10.80;;;;;;;-142.75;68.50;77645.22;4972309;28;20027;-75
2021/05/19 04:14:48;;;;;;;20.37;9.73;;;;;;;-142.75;68.40;77633.41;4972808;28;20087;-74
2021/05/19 04:17:13;;;;;;;25.92;10.38;;;;;;;-142.75;68.39;77635.38;4973931;28;20269;-75
2021/05/19 04:19:38;;;;;;;18.92;10.48;;;;;;;-142.75;68.57;77625.53;4965674;28;20022;-76
2021/05/19 04:22:04;;;;;;;22.70;10.18;;;;;;;-142.75;68.52;77621.59;4973200;28;20026;-76
2021/05/19 04:24:29;;;;;;;21.88;10.68;;;;;;;-142.75;68.80;77621.59;4973939;28;20026;-77
2021/05/19 04:26:55;;;;;;;29.35;10.40;;;;;;;-142.75;68.48;77613.72;4988080;28;20029;-80
2021/05/19 04:29:20;;;;;;;24.33;10.18;;;;;;;-142.75;68.77;77617.66;4984870;28;20433;-83
2021/05/19 04:31:45;;;;;;;23.50;10.50;;;;;;;-142.75;68.88;77623.56;4968201;28;20102;-81
2021/05/19 04:34:11;;;;;;;18.25;10.18;;;;;;;-142.75;68.89;77617.66;4967164;28;20084;-81
2021/05/19 04:36:36;;;;;;;23.77;10.87;;;;;;;-142.75;68.84;77613.72;4965389;28;20503;-81
2021/05/19 04:39:03;;;;;;;24.52;11.48;;;;;;;-142.75;68.91;77621.59;4967704;28;20332;-80
2021/05/19 04:41:28;;;;;;;25.40;11.57;;;;;;;-142.75;68.72;77621.59;4968690;28;20034;-80
2021/05/19 04:43:54;;;;;;;29.13;12.02;;;;;;;-142.75;68.95;77631.44;4968174;28;20121;-83
2021/05/19 04:46:19;;;;;;;25.40;12.25;;;;;;;-142.75;69.15;77623.56;4984547;28;20027;-82
2021/05/19 04:48:45;;;;;;;28.02;13.82;;;;;;;-142.75;69.36;77625.53;4967716;28;20475;-81
2021/05/19 04:51:11;;;;;;;30.75;14.90;;;;;;;-142.75;69.47;77611.75;4983807;28;20022;-81
2021/05/19 04:53:36;;;;;;;37.70;16.17;;;;;;;-142.75;69.22;77605.84;4985523;28;20026;-81
2021/05/19 04:56:01;;;;;;;32.60;15.18;;;;;;;-142.75;69.36;77597.97;4985008;28;20073;-81
2021/05/19 04:58:26;;;;;;;31.40;14.93;;;;;;;-142.75;69.45;77584.19;4968489;28;20026;-81
2021/05/19 05:00:54;;;;;;;29.17;15.23;;;;;;;-142.75;69.52;77578.28;4967089;28;20045;-80
2021/05/19 05:03:20;;;;;;;33.70;15.57;;;;;;;-142.75;69.46;77582.22;4965446;28;20022;-84
2021/05/19 05:05:46;;;;;;;31.98;16.65;;;;;;;-142.75;69.47;77570.41;4984112;28;20035;-81
2021/05/19 05:08:11;;;;;;;43.53;17.87;;;;;;;-142.75;68.92;77570.41;4984541;28;20034;-81
2021/05/19 05:10:37;;;;;;;35.75;17.67;;;;;;;-142.75;68.58;77562.53;4984135;28;20027;-81
2021/05/19 05:13:02;;;;;;;41.63;18.83;;;;;;;-142.75;68.43;77554.66;4966650;28;20109;-82
2021/05/19 05:15:27;;;;;;;39.88;18.27;;;;;;;-142.75;68.34;77542.84;4967191;28;20516;-79
2021/05/19 05:17:53;;;;;;;41.53;20.65;;;;;;;-142.75;68.51;77521.19;4966156;28;20023;-79
2021/05/19 05:20:19;;;;;;;35.92;19.42;;;;;;;-142.75;68.24;77517.25;4962670;28;20027;-81
2021/05/19 05:22:44;;;;;;;40.42;20.15;;;;;;;-142.75;68.03;77505.44;4983908;28;20026;-80
2021/05/19 05:25:12;;;;;;;37.53;19.08;;;;;;;-142.75;67.59;77499.53;4966723;28;20029;-80
2021/05/19 05:27:37;;;;;;;37.17;18.73;;;;;;;-142.75;67.47;77501.50;4981997;28;20031;-80
2021/05/19 05:30:04;;;;;;;40.03;18.05;;;;;;;-142.75;67.57;77511.34;4983846;28;20414;-79
2021/05/19 05:32:29;;;;;;;35.97;18.65;;;;;;;-142.75;67.56;77511.34;4982444;28;20270;-79
2021/05/19 05:34:54;;;;;;;38.92;19.60;;;;;;;-142.75;67.53;77511.34;4964542;28;20034;-79
2021/05/19 05:37:21;;;;;;;31.15;19.25;;;;;;;-142.75;67.60;77513.31;4965680;28;20133;-80
2021/05/19 05:39:46;;;;;;;30.80;19.15;;;;;;;-142.75;67.40;77515.28;4986371;28;20037;-79
2021/05/19 05:42:12;;;;;;;39.15;20.30;;;;;;;-142.75;67.25;77499.53;4963578;28;20031;-79
2021/05/19 05:44:37;;;;;;;40.10;20.00;;;;;;;-142.75;66.91;77513.31;4980812;28;20496;-80
2021/05/19 05:47:02;;;;;;;38.22;20.05;;;;;;;-142.75;67.03;77495.59;4961061;28;20037;-81
2021/05/19 05:49:28;;;;;;;41.42;20.48;;;;;;;-142.75;66.99;77483.78;4981686;28;20034;-79
2021/05/19 05:51:53;;;;;;;45.50;20.75;;;;;;;-142.75;66.76;77483.78;4964724;28;20022;-79
2021/05/19 05:54:18;;;;;;;40.33;20.40;;;;;;;-142.75;66.57;77487.72;4965255;28;20042;-79
2021/05/19 05:56:44;;;;;;;34.08;19.98;;;;;;;-142.75;66.53;77495.59;4964455;28;20027;-80
2021/05/19 05:59:10;;;;;;;40.97;21.73;;;;;;;-142.75;66.57;77503.47;4984866;28;20069;-81
2021/05/19 06:01:35;;;;;;;41.30;21.33;;;;;;;-142.75;66.53;77481.81;4965475;28;20084;-79
2021/05/19 06:04:00;;;;;;;36.88;19.38;;;;;;;-142.75;66.33;77464.09;4978444;28;20566;-79
2021/05/19 06:06:26;;;;;;;39.35;20.67;;;;;;;-142.75;66.19;77448.34;4964537;28;20027;-79
2021/05/19 06:08:51;;;;;;;36.00;19.45;;;;;;;-142.75;65.63;77452.25;4983788;28;20038;-79
2021/05/19 06:11:17;;;;;;;38.38;19.63;;;;;;;-142.75;65.26;77424.69;4982692;28;20034;-79
2021/05/19 06:13:43;;;;;;;39.63;20.83;;;;;;;-142.75;65.58;77405.00;4967747;28;20488;-79
2021/05/19 06:16:08;;;;;;;41.03;21.25;;;;;;;-142.75;65.46;77395.16;4966185;28;20049;-79
2021/05/19 06:18:34;;;;;;;33.35;19.40;;;;;;;-142.75;65.35;77393.19;4962671;28;20444;-80
2021/05/19 06:20:59;;;;;;;44.40;22.08;;;;;;;-142.75;65.06;77383.34;4977813;28;20018;-80
2021/05/19 06:23:24;;;;;;;38.55;21.25;;;;;;;-142.75;64.34;77369.56;4964909;28;20026;-79
2021/05/19 06:25:50;;;;;;;38.53;20.02;;;;;;;-142.75;64.51;77357.75;4978391;28;20027;-80
2021/05/19 06:28:15;;;;;;;33.63;19.25;;;;;;;-142.75;64.38;77355.78;4963114;28;20030;-80
2021/05/19 06:30:40;;;;;;;33.28;20.13;;;;;;;-142.75;64.54;77365.63;4985329;28;20063;-80
2021/05/19 06:33:06;;;;;;;31.98;19.50;;;;;;;-142.75;64.12;77351.84;4964907;28;20113;-80
2021/05/19 06:35:31;;;;;;;33.13;18.95;;;;;;;-142.75;64.07;77351.84;4968718;28;20029;-80
2021/05/19 06:37:56;;;;;;;39.00;19.27;;;;;;;-142.75;63.41;77332.16;4981541;28;20023;-80
2021/05/19 06:40:22;;;;;;;38.05;18.15;;;;;;;-142.75;63.52;77308.53;4989139;28;20109;-79
2021/05/19 06:42:48;;;;;;;29.73;18.67;;;;;;;-142.75;62.92;77310.50;4982320;28;20117;-80
2021/05/19 06:45:13;;;;;;;;;;;;;;;-142.75;63.02;77312.47;4963441;28;20464;-81
2021/05/19 06:47:39;;;;;;;30.60;17.65;;;;;;;-142.75;61.87;77320.34;4962239;28;19914;-80
2021/05/19 06:50:05;;;;;;;36.95;17.85;;;;;;;-142.75;62.58;77310.50;4966553;28;20053;-80
2021/05/19 06:52:31;;;;;;;32.38;17.48;;;;;;;-142.75;62.71;77290.81;4962498;28;20018;-80
2021/05/19 06:54:56;;;;;;;30.45;17.13;;;;;;;-142.75;61.96;77308.53;4980930;28;20030;-80
2021/05/19 06:57:21;;;;;;;37.45;19.50;;;;;;;-142.75;63.25;77237.66;4963940;28;20049;-80
2021/05/19 06:59:49;;;;;;;30.10;16.20;;;;;;;-142.75;60.94;77119.53;4959670;28;20436;-80
2021/05/19 07:02:15;;;;;;;34.33;16.33;;;;;;;-142.75;59.88;76995.50;4963786;28;20026;-80
2021/05/19 07:04:40;;;;;;;27.25;14.45;;;;;;;-142.75;57.08;76950.22;4962638;28;20037;-81
2021/05/19 07:07:05;;;;;;;25.48;14.82;;;;;;;-142.75;56.57;76954.16;4978640;28;20104;-80
2021/05/19 07:09:30;;;;;;;;;;;;;;;-142.75;57.29;76950.22;4966335;28;20031;-80
2021/05/19 07:11:56;;;;;;;26.35;13.60;;;;;;;-142.75;55.94;76995.50;4963881;28;19992;-79
2021/05/19 07:14:21;;;;;;;;;;;;;;;-142.75;56.83;77003.38;4981185;28;20373;-79
2021/05/19 07:16:54;;;;;;;26.27;13.65;;;;;;;-142.75;57.79;77038.81;4973978;28;19914;-79
2021/05/19 07:19:20;;;;;;;25.20;13.95;;;;;;;-142.75;58.23;77034.88;4960363;28;20026;-80
2021/05/19 07:21:47;;;;;;;22.02;13.02;;;;;;;-142.75;57.17;77034.88;4962330;28;20079;-79
2021/05/19 07:24:12;;;;;;;;;;;;;;;-142.75;58.01;77052.59;4961912;28;20034;-79
2021/05/19 07:26:40;;;;;;;24.02;12.20;;;;;;;-142.75;59.04;77068.34;4965774;28;19914;-77
2021/05/19 07:29:05;;;;;;;22.45;12.23;;;;;;;-142.75;58.80;77111.66;4955354;28;20058;-77
2021/05/19 07:31:31;;;;;;;27.27;14.48;;;;;;;-142.75;60.32;77125.44;4983008;28;20070;-80
2021/05/19 07:33:57;;;;;;;;;;;;;;;-142.75;60.86;77156.94;4957659;28;20041;-81
2021/05/19 07:36:22;;;;;;;21.75;11.98;;;;;;;-142.75;60.79;77156.94;4981584;28;19922;-79
2021/05/19 07:38:47;;;;;;;26.20;12.07;;;;;;;-142.75;61.06;77164.81;4977605;28;20058;-81
2021/05/19 07:41:12;;;;;;;25.65;12.15;;;;;;;-142.75;61.97;77151.03;4957721;28;20052;-82
2021/05/19 07:43:38;;;;;;;;;;;;;;;-142.75;60.81;77186.47;4962822;28;20046;-82
2021/05/19 07:46:03;;;;;;;24.75;10.23;;;;;;;-142.75;62.66;77166.78;4960441;28;19921;-80
2021/05/19 07:48:28;;;;;;;22.00;10.10;;;;;;;-142.75;62.08;77149.06;4966690;28;20035;-81
2021/05/19 07:50:53;;;;;;;;;;;;;;;-142.75;61.94;77119.53;4968572;28;20026;-81
2021/05/19 07:53:19;;;;;;;20.30;8.82;;;;;;;-142.75;60.67;77119.53;4965238;28;19991;-81
2021/05/19 07:55:49;;;;;;;;;;;;;;;-142.75;60.21;77119.53;4963341;28;20488;-80
2021/05/19 08:00:56;;;;;;;20.70;9.23;;;;;;;-142.75;59.59;77066.38;4985564;28;20027;-78
2021/05/19 08:03:22;;;;;;;20.60;10.95;;;;;;;-142.75;58.91;77076.22;4958850;28;20023;-81
2021/05/19 08:05:47;;;;;;;29.85;13.50;;;;;;;-142.75;60.78;77082.13;4964510;28;20041;-80
2021/05/19 08:08:13;;;;;;;;;;;;;;;-142.75;60.53;77078.19;4961352;28;20395;-79
2021/05/19 08:10:39;;;;;;;24.67;13.43;;;;;;;-142.75;60.32;77080.16;4962408;28;19929;-80
2021/05/19 08:13:04;;;;;;;22.00;12.15;;;;;;;-142.75;60.19;77097.88;4970576;28;20518;-79
2021/05/19 08:15:30;;;;;;;17.38;10.43;;;;;;;-142.75;59.76;77113.63;4964755;28;20023;-79
2021/05/19 08:17:55;;;;;;;17.42;11.18;;;;;;;-142.75;60.53;77137.25;4965102;28;20042;-80
2021/05/19 08:20:21;;;;;;;27.83;11.98;;;;;;;-142.75;60.65;77170.72;4982530;28;20026;-80
2021/05/19 08:22:47;;;;;;;20.42;9.70;;;;;;;-142.75;61.25;77156.94;4961254;28;20117;-80
2021/05/19 08:25:13;;;;;;;18.38;8.88;;;;;;;-142.75;59.85;77153.00;4965302;28;20030;-79
2021/05/19 08:27:38;;;;;;;14.98;7.55;;;;;;;-142.75;59.84;77151.03;4962634;28;20033;-79
2021/05/19 08:30:12;;;;;;;19.27;7.85;;;;;;;-142.75;60.46;77137.25;4967645;28;20026;-78
2021/05/19 08:32:37;;;;;;;15.75;7.15;;;;;;;-142.75;60.65;77101.81;4963116;28;20027;-79
2021/05/19 08:35:07;;;;;;;18.45;8.18;;;;;;;-142.75;59.16;77050.63;4968644;28;20033;-81
2021/05/19 08:37:34;;;;;;;14.85;6.10;;;;;;;-142.75;58.39;77019.13;4984775;28;20114;-79
2021/05/19 08:39:59;;;;;;;22.35;6.15;;;;;;;-142.75;58.63;76969.91;4966575;28;20019;-81
2021/05/19 08:42:26;;;;;;;17.98;4.68;;;;;;;-142.75;55.70;76879.34;4968051;28;20407;-80
2021/05/19 08:44:51;;;;;;;8.35;3.88;;;;;;;-142.75;53.97;76873.44;4966031;28;20068;-80
2021/05/19 08:47:22;;;;;;;7.35;3.42;;;;;;;-142.75;53.91;76873.44;4981652;28;20487;-80
2021/05/19 08:49:48;;;;;;;8.38;3.45;;;;;;;-142.75;54.36;76918.72;4966941;28;20041;-80
2021/05/19 08:52:13;;;;;;;;;;;;;;;-142.75;54.36;76960.06;4966970;28;20050;-82
2021/05/19 08:54:39;;;;;;;6.75;2.75;;;;;;;-142.75;55.40;77023.06;4967537;28;19925;-79
2021/05/19 08:57:04;;;;;;;;;;;;;;;-142.75;57.19;77086.06;4966783;28;20103;-79
2021/05/19 08:59:29;;;;;;;13.10;3.95;;;;;;;-142.75;57.71;77121.50;4983842;28;19929;-79
2021/05/19 09:01:55;;;;;;;;;;;;;;;-142.75;57.46;77143.16;4984880;28;20022;-80
2021/05/19 09:04:24;;;;;;;11.93;3.95;;;;;;;-142.75;57.55;77135.28;4966701;28;20024;-82
2021/05/19 09:06:54;;;;;;;10.77;3.90;;;;;;;-142.75;57.61;77164.81;4983366;28;20523;-81
2021/05/19 09:09:26;;;;;;;10.25;4.85;;;;;;;-142.75;59.29;77149.06;4966213;28;20027;-81
2021/05/19 09:11:57;;;;;;;11.70;3.17;;;;;;;-142.75;57.96;77135.28;4984813;28;20042;-78
2021/05/19 09:14:23;;;;;;;8.93;4.03;;;;;;;-142.75;58.31;77145.13;4984169;28;20062;-79
2021/05/19 09:16:48;;;;;;;8.25;3.50;;;;;;;-142.75;57.99;77156.94;4965389;28;20060;-79
2021/05/19 09:19:13;;;;;;;10.40;2.90;;;;;;;-142.75;58.15;77158.91;4967290;28;20087;-80
2021/05/19 09:21:41;;;;;;;5.25;1.10;;;;;;;-142.75;55.24;77137.25;4965262;28;20072;-79
2021/05/19 09:24:14;;;;;;;2.10;1.02;;;;;;;-142.75;55.47;77133.31;4967511;28;20032;-80
2021/05/19 09:26:55;;;;;;;4.82;0.70;;;;;;;-142.75;54.17;77125.44;4965151;28;20026;-80
2021/05/19 09:29:25;;;;;;;2.88;0.95;;;;;;;-142.75;54.08;77117.56;4987191;28;20027;-80
2021/05/19 09:31:53;;;;;;;4.93;0.73;;;;;;;-142.75;54.95;77109.69;4985418;28;20030;-79
2021/05/19 09:34:32;;;;;;;2.92;0.40;;;;;;;-142.75;53.79;77119.53;4966340;28;20113;-79
2021/05/19 09:37:19;;;;;;;2.90;0.70;;;;;;;-142.75;54.85;77129.38;4982552;28;20030;-79
2021/05/19 09:39:56;;;;;;;2.42;0.50;;;;;;;-142.75;53.70;77156.94;4967931;28;20031;-79
2021/05/19 09:42:37;;;;;;;1.40;0.50;;;;;;;-142.75;53.47;77153.00;4965661;28;20031;-80
2021/05/19 09:45:14;;;;;;;2.17;0.50;;;;;;;-142.75;53.57;77149.06;4964455;28;20503;-78
2021/05/19 09:47:42;;;;;;;2.75;0.47;;;;;;;-142.75;53.56;77160.88;4963455;28;20034;-78
2021/05/19 09:50:11;;;;;;;3.58;0.40;;;;;;;-142.75;54.10;77141.19;4965888;28;20471;-80
2021/05/19 09:52:36;;;;;;;1.90;0.68;;;;;;;-142.75;53.63;77154.97;4963742;28;20034;-79
2021/05/19 09:55:03;;;;;;;1.27;0.55;;;;;;;-142.75;54.47;77164.81;4966320;28;20030;-78
2021/05/19 09:57:40;;;;;;;2.35;0.73;;;;;;;-142.75;54.63;77170.72;4962882;28;20041;-79
2021/05/19 10:00:06;;;;;;;5.05;0.55;;;;;;;-142.75;54.57;77216.00;4984882;28;20105;-78
2021/05/19 10:02:33;;;;;;;;;;;;;;;-142.75;57.17;77204.19;4963711;28;20030;-78
2021/05/19 10:05:06;;;;;;;4.37;0.70;;;;;;;-142.75;57.41;77202.22;4985733;28;19913;-79
2021/05/19 10:07:31;;;;;;;5.82;1.30;;;;;;;-142.75;57.38;77223.88;4967443;28;20050;-80
2021/05/19 10:09:56;;;;;;;5.78;1.45;;;;;;;-142.75;58.35;77255.38;4964101;28;20053;-79
2021/05/19 10:12:22;;;;;;;5.97;1.55;;;;;;;-142.75;59.14;77265.22;4966060;28;20040;-80
2021/05/19 10:14:48;;;;;;;3.38;1.13;;;;;;;-142.75;58.95;77267.19;4963365;28;20038;-83
2021/05/19 10:17:15;;;;;;;5.93;1.50;;;;;;;-142.75;59.63;77275.06;4968032;28;20513;-79
2021/05/19 10:19:43;;;;;;;6.03;1.17;;;;;;;-142.75;60.11;77279.00;4966750;28;20069;-79
2021/05/19 10:22:14;;;;;;;3.17;0.85;;;;;;;-142.75;59.61;77298.69;4982294;28;20377;-79
2021/05/19 10:24:59;;;;;;;4.32;1.30;;;;;;;-142.75;60.16;77316.41;4983519;28;20042;-78
2021/05/19 10:27:44;;;;;;;2.17;0.90;;;;;;;-142.75;60.38;77314.44;4981831;28;20039;-78
2021/05/19 10:30:10;;;;;;;5.85;1.23;;;;;;;-142.75;60.50;77322.31;4962657;28;20026;-79
2021/05/19 10:32:37;;;;;;;4.03;0.80;;;;;;;-142.75;60.25;77334.13;4965638;28;20021;-80
2021/05/19 10:35:08;;;;;;;4.18;1.00;;;;;;;-142.75;60.95;77345.94;4982547;28;20545;-80
2021/05/19 10:37:36;;;;;;;2.95;0.80;;;;;;;-142.75;61.57;77381.38;4971972;28;20117;-81
2021/05/19 10:40:07;;;;;;;2.20;0.60;;;;;;;-142.75;60.53;77395.16;4982974;28;20109;-81
2021/05/19 10:42:57;;;;;;;2.72;0.50;;;;;;;-142.75;61.21;77391.22;4965759;28;20030;-81
2021/05/19 10:45:22;;;;;;;4.32;0.57;;;;;;;-142.75;61.00;77391.22;5039701;23;20051;-82
2021/05/19 10:47:48;;;;;;;2.35;0.70;;;;;;;-142.75;60.91;77379.41;5080919;28;20028;-82
2021/05/19 11:01:09;;;;;;;2.90;1.02;;;;;;;-142.75;60.85;77330.19;5061103;28;20033;-84
2021/05/19 11:03:34;;;;;;;2.92;0.90;;;;;;;-142.75;60.56;77316.41;5042106;28;20028;-84
2021/05/19 11:06:00;;;;;;;4.78;0.95;;;;;;;-142.75;60.10;77318.38;5061057;28;20108;-83
2021/05/19 11:08:28;;;;;;;2.88;1.17;;;;;;;-142.75;61.00;77306.56;5046684;28;20025;-83
2021/05/19 11:11:13;;;;;;;4.38;1.05;;;;;;;-142.75;59.46;77286.88;5048780;28;20048;-82
2021/05/19 11:14:03;;;;;;;6.45;1.30;;;;;;;-142.75;58.44;77277.03;5066408;28;20012;-79
2021/05/19 11:17:17;;;;;;;2.67;0.82;;;;;;;-142.75;58.07;77257.34;5051977;28;20029;-81
2021/05/19 11:19:42;;;;;;;3.90;0.80;;;;;;;-142.75;58.74;77223.88;5038925;28;20053;-81
2021/05/19 11:22:13;;;;;;;1.80;0.57;;;;;;;-142.75;57.95;77186.47;5045615;28;20067;-78